createdAt,value
2023-01-27T00:01:10.598Z,51.00
2023-01-27T00:03:37.356Z,51.30
2023-01-27T00:06:04.727Z,51.40
2023-01-27T00:08:31.394Z,51.00
2023-01-27T00:11:20.195Z,51.90
2023-01-27T00:13:46.950Z,51.40
2023-01-27T00:16:13.619Z,50.80
2023-01-27T00:18:40.219Z,51.60
2023-01-27T00:21:25.572Z,51.40
2023-01-27T00:24:10.830Z,51.60
2023-01-27T00:26:37.496Z,51.60
2023-01-27T00:29:04.154Z,51.40
2023-01-27T00:31:49.615Z,51.50
2023-01-27T00:34:16.230Z,51.20
2023-01-27T00:36:42.809Z,51.40
2023-01-27T00:39:10.392Z,51.40
2023-01-27T00:41:37.345Z,51.70
2023-01-27T00:44:05.666Z,51.20
2023-01-27T00:46:32.846Z,51.60
2023-01-27T00:48:59.464Z,51.70
2023-01-27T00:51:26.044Z,51.30
2023-01-27T00:53:52.603Z,50.70
2023-01-27T00:56:19.288Z,51.70
2023-01-27T00:58:46.257Z,51.30
2023-01-27T01:01:14.141Z,51.00
2023-01-27T01:03:41.004Z,51.40
2023-01-27T01:06:09.431Z,51.00
2023-01-27T01:08:37.014Z,51.20
2023-01-27T01:11:07.236Z,51.50
2023-01-27T01:13:33.850Z,51.30
2023-01-27T01:16:07.697Z,51.00
2023-01-27T01:18:34.293Z,51.60
2023-01-27T01:21:01.018Z,51.40
2023-01-27T01:23:28.004Z,50.80
2023-01-27T01:25:55.241Z,51.20
2023-01-27T01:28:22.307Z,51.60
2023-01-27T01:30:48.931Z,50.50
2023-01-27T01:33:15.807Z,50.60
2023-01-27T01:35:42.400Z,50.80
2023-01-27T01:38:09.388Z,51.30
2023-01-27T01:40:40.232Z,51.40
2023-01-27T01:43:11.309Z,51.00
2023-01-27T01:45:44.850Z,51.30
2023-01-27T01:48:16.879Z,50.30
2023-01-27T01:50:45.614Z,50.50
2023-01-27T01:53:12.308Z,50.40
2023-01-27T01:55:39.758Z,50.80
2023-01-27T01:58:08.199Z,50.70
2023-01-27T02:00:34.982Z,50.40
2023-01-27T02:03:02.279Z,50.50
2023-01-27T02:05:36.643Z,50.40
2023-01-27T02:08:12.461Z,49.80
2023-01-27T02:10:39.889Z,50.60
2023-01-27T02:13:06.754Z,50.60
2023-01-27T02:15:33.522Z,50.70
2023-01-27T02:18:00.817Z,50.10
2023-01-27T02:20:31.153Z,51.00
2023-01-27T02:23:11.897Z,50.60
2023-01-27T02:25:41.461Z,50.40
2023-01-27T02:28:08.306Z,50.50
2023-01-27T02:30:35.242Z,50.90
2023-01-27T02:33:01.802Z,50.70
2023-01-27T02:35:34.110Z,50.10
2023-01-27T02:38:00.686Z,50.60
2023-01-27T02:40:29.162Z,50.60
2023-01-27T02:42:56.764Z,50.60
2023-01-27T02:45:23.441Z,50.90
2023-01-27T02:47:49.989Z,50.60
2023-01-27T02:50:16.992Z,50.70
2023-01-27T02:52:43.794Z,50.30
2023-01-27T02:55:10.708Z,50.40
2023-01-27T02:57:37.453Z,50.70
2023-01-27T03:00:04.567Z,50.00
2023-01-27T03:02:31.137Z,50.60
2023-01-27T03:04:57.901Z,50.10
2023-01-27T03:07:24.488Z,50.50
2023-01-27T03:09:51.030Z,51.60
2023-01-27T03:12:20.532Z,50.30
2023-01-27T03:15:06.471Z,50.60
2023-01-27T03:17:51.682Z,50.80
2023-01-27T03:20:18.410Z,50.10
2023-01-27T03:22:45.002Z,50.20
2023-01-27T03:25:12.029Z,50.30
2023-01-27T03:27:38.673Z,50.40
2023-01-27T03:30:05.683Z,50.10
2023-01-27T03:32:32.772Z,50.60
2023-01-27T03:35:00.486Z,50.80
2023-01-27T03:37:46.312Z,50.80
2023-01-27T03:40:31.997Z,50.20
2023-01-27T03:43:17.689Z,50.20
2023-01-27T03:46:04.813Z,51.40
2023-01-27T03:48:32.113Z,49.90
2023-01-27T03:50:59.461Z,50.70
2023-01-27T03:53:26.038Z,50.30
2023-01-27T03:55:52.703Z,50.20
2023-01-27T03:58:23.840Z,50.00
2023-01-27T04:00:52.191Z,49.90
2023-01-27T04:03:38.004Z,49.50
2023-01-27T04:06:24.714Z,49.70
2023-01-27T04:08:51.361Z,49.60
2023-01-27T04:11:38.426Z,49.80
2023-01-27T04:14:05.613Z,49.70
2023-01-27T04:16:32.597Z,49.50
2023-01-27T04:18:59.260Z,49.60
2023-01-27T04:21:26.387Z,49.80
2023-01-27T04:23:53.256Z,50.20
2023-01-27T04:26:20.421Z,49.90
2023-01-27T04:28:47.636Z,49.60
2023-01-27T04:31:15.597Z,50.50
2023-01-27T04:33:42.618Z,50.10
2023-01-27T04:36:09.574Z,50.30
2023-01-27T04:38:36.194Z,49.80
2023-01-27T04:41:02.829Z,49.70
2023-01-27T04:43:29.405Z,49.80
2023-01-27T04:45:56.060Z,50.10
2023-01-27T04:48:22.613Z,50.40
2023-01-27T04:50:49.260Z,49.20
2023-01-27T04:53:15.839Z,49.70
2023-01-27T04:55:46.031Z,50.00
2023-01-27T04:58:13.187Z,50.40
2023-01-27T05:00:39.921Z,49.50
2023-01-27T05:03:06.617Z,50.10
2023-01-27T05:05:33.163Z,50.10
2023-01-27T05:08:06.415Z,50.80
2023-01-27T05:10:33.014Z,50.40
2023-01-27T05:12:59.695Z,49.70
2023-01-27T05:15:26.282Z,50.30
2023-01-27T05:17:52.892Z,50.60
2023-01-27T05:20:19.484Z,50.90
2023-01-27T05:22:46.169Z,49.90
2023-01-27T05:25:12.986Z,50.00
2023-01-27T05:27:40.124Z,50.50
2023-01-27T05:30:07.051Z,50.60
2023-01-27T05:32:33.625Z,50.20
2023-01-27T05:35:00.183Z,50.50
2023-01-27T05:37:26.747Z,50.70
2023-01-27T05:39:53.399Z,50.20
2023-01-27T05:42:19.958Z,49.90
2023-01-27T05:44:46.524Z,50.60
2023-01-27T05:47:13.095Z,50.20
2023-01-27T05:49:39.657Z,50.60
2023-01-27T05:52:06.275Z,50.50
2023-01-27T05:54:32.805Z,50.00
2023-01-27T05:56:59.370Z,50.20
2023-01-27T05:59:25.920Z,50.80
2023-01-27T06:01:52.525Z,49.60
2023-01-27T06:04:19.228Z,49.80
2023-01-27T06:06:45.833Z,49.50
2023-01-27T06:09:12.456Z,49.40
2023-01-27T06:11:38.987Z,49.40
2023-01-27T06:14:05.554Z,49.60
2023-01-27T06:16:32.150Z,49.40
2023-01-27T06:18:58.878Z,49.60
2023-01-27T06:21:25.445Z,49.70
2023-01-27T06:23:53.422Z,49.20
2023-01-27T06:26:20.382Z,49.20
2023-01-27T06:28:47.092Z,49.90
2023-01-27T06:31:18.387Z,49.80
2023-01-27T06:33:45.184Z,50.10
2023-01-27T06:36:12.675Z,49.40
2023-01-27T06:38:39.535Z,49.90
2023-01-27T06:41:06.462Z,50.40
2023-01-27T06:43:33.106Z,49.80
2023-01-27T06:46:00.061Z,49.80
2023-01-27T06:48:27.463Z,49.40
2023-01-27T06:50:54.465Z,49.90
2023-01-27T06:53:21.133Z,50.10
2023-01-27T06:55:47.991Z,49.40
2023-01-27T06:58:15.364Z,49.90
2023-01-27T07:00:42.327Z,50.30
2023-01-27T07:03:10.624Z,49.60
2023-01-27T07:05:38.075Z,50.10
2023-01-27T07:08:04.722Z,50.00
2023-01-27T07:10:31.386Z,50.10
2023-01-27T07:13:12.369Z,49.90
2023-01-27T07:15:39.002Z,50.00
2023-01-27T07:18:05.602Z,49.80
2023-01-27T07:20:32.595Z,49.40
2023-01-27T07:22:59.483Z,49.90
2023-01-27T07:25:26.598Z,50.00
2023-01-27T07:27:53.266Z,49.70
2023-01-27T07:30:19.945Z,49.50
2023-01-27T07:32:46.511Z,49.50
2023-01-27T07:35:13.078Z,49.90
2023-01-27T07:37:39.813Z,49.40
2023-01-27T07:40:06.707Z,49.10
2023-01-27T07:42:33.322Z,49.20
2023-01-27T07:44:59.889Z,49.70
2023-01-27T07:47:26.724Z,49.70
2023-01-27T07:49:53.581Z,49.50
2023-01-27T07:52:20.184Z,49.50
2023-01-27T07:54:46.737Z,49.50
2023-01-27T07:57:13.307Z,49.40
2023-01-27T07:59:39.907Z,49.30
2023-01-27T08:02:06.661Z,49.00
2023-01-27T08:04:40.202Z,50.10
2023-01-27T08:07:19.861Z,49.50
2023-01-27T08:09:46.500Z,49.30
2023-01-27T08:12:13.090Z,49.90
2023-01-27T08:14:39.670Z,49.80
2023-01-27T08:17:06.296Z,48.80
2023-01-27T08:19:32.908Z,49.70
2023-01-27T08:21:59.518Z,49.90
2023-01-27T08:24:26.152Z,49.40
2023-01-27T08:26:52.798Z,49.70
2023-01-27T08:29:19.362Z,49.80
2023-01-27T08:31:46.399Z,49.10
2023-01-27T08:34:13.058Z,49.60
2023-01-27T08:36:43.505Z,49.70
2023-01-27T08:39:10.407Z,49.00
2023-01-27T08:41:37.000Z,50.20
2023-01-27T08:44:03.847Z,49.60
2023-01-27T08:46:30.496Z,49.60
2023-01-27T08:48:57.115Z,49.90
2023-01-27T08:51:23.725Z,50.00
2023-01-27T08:53:50.284Z,49.90
2023-01-27T08:56:16.847Z,49.80
2023-01-27T08:58:45.688Z,49.70
2023-01-27T09:01:12.446Z,49.60
2023-01-27T09:03:39.070Z,49.50
2023-01-27T09:06:07.556Z,49.90
2023-01-27T09:08:34.460Z,49.70
2023-01-27T09:11:07.375Z,49.70
2023-01-27T09:13:33.926Z,49.70
2023-01-27T09:16:01.257Z,49.40
2023-01-27T09:18:28.020Z,49.50
2023-01-27T09:20:54.577Z,49.50
2023-01-27T09:23:21.148Z,49.50
2023-01-27T09:25:47.803Z,49.80
2023-01-27T09:28:17.457Z,49.10
2023-01-27T09:30:46.334Z,49.70
2023-01-27T09:33:15.927Z,49.20
2023-01-27T09:35:47.054Z,49.80
2023-01-27T09:38:15.898Z,50.10
2023-01-27T09:40:54.580Z,49.90
2023-01-27T09:43:28.304Z,49.90
2023-01-27T09:46:13.514Z,49.50
2023-01-27T09:48:43.319Z,49.50
2023-01-27T09:51:15.625Z,49.80
2023-01-27T09:53:50.510Z,49.50
2023-01-27T09:56:19.781Z,49.50
2023-01-27T09:59:07.206Z,49.80
2023-01-27T10:01:43.304Z,49.30
2023-01-27T10:04:33.374Z,49.90
2023-01-27T10:07:12.351Z,49.70
2023-01-27T10:09:57.351Z,49.80
2023-01-27T10:12:36.582Z,49.80
2023-01-27T10:15:16.443Z,49.40
2023-01-27T10:17:49.398Z,49.80
2023-01-27T10:20:23.149Z,50.20
2023-01-27T10:23:09.144Z,50.00
2023-01-27T10:25:43.980Z,49.70
2023-01-27T10:28:14.632Z,50.10
2023-01-27T10:30:50.614Z,49.80
2023-01-27T10:33:18.665Z,50.30
2023-01-27T10:35:48.038Z,49.90
2023-01-27T10:38:20.132Z,50.00
2023-01-27T10:41:05.583Z,50.10
2023-01-27T10:43:44.552Z,50.40
2023-01-27T10:46:16.538Z,50.30
2023-01-27T10:48:49.403Z,50.30
2023-01-27T10:51:15.980Z,50.00
2023-01-27T10:53:48.898Z,50.50
2023-01-27T10:56:24.605Z,50.80
2023-01-27T10:58:55.765Z,50.60
2023-01-27T11:01:26.077Z,50.30
2023-01-27T11:03:58.910Z,50.70
2023-01-27T11:06:29.448Z,50.30
2023-01-27T11:09:01.951Z,50.60
2023-01-27T11:11:47.351Z,50.50
2023-01-27T11:14:22.555Z,50.10
2023-01-27T11:16:51.336Z,50.40
2023-01-27T11:19:18.054Z,50.70
2023-01-27T11:21:45.229Z,50.40
2023-01-27T11:24:18.494Z,50.20
2023-01-27T11:26:48.324Z,51.40
2023-01-27T11:29:17.993Z,50.80
2023-01-27T11:32:04.945Z,50.60
2023-01-27T11:34:57.806Z,50.50
2023-01-27T11:37:27.014Z,51.00
2023-01-27T11:39:54.284Z,50.70
2023-01-27T11:42:21.571Z,50.50
2023-01-27T11:44:51.045Z,50.50
2023-01-27T11:47:24.893Z,50.50
2023-01-27T11:49:52.361Z,50.80
2023-01-27T11:52:19.785Z,50.80
2023-01-27T11:54:55.925Z,50.60
2023-01-27T11:57:24.276Z,50.90
2023-01-27T11:59:54.324Z,50.60
2023-01-27T12:02:25.464Z,51.00
2023-01-27T12:04:57.513Z,50.60
2023-01-27T12:07:24.789Z,50.50
2023-01-27T12:09:51.558Z,50.70
2023-01-27T12:12:20.652Z,50.80
2023-01-27T12:14:48.128Z,50.90
2023-01-27T12:17:19.180Z,50.70
2023-01-27T12:19:46.616Z,50.50
2023-01-27T12:22:24.833Z,51.00
2023-01-27T12:24:53.455Z,50.50
2023-01-27T12:27:21.796Z,50.40
2023-01-27T12:29:54.967Z,51.20
2023-01-27T12:32:23.835Z,50.50
2023-01-27T12:34:52.156Z,50.60
2023-01-27T12:37:21.802Z,50.60
2023-01-27T12:39:57.176Z,50.80
2023-01-27T12:42:44.443Z,50.60
2023-01-27T12:45:18.575Z,51.20
2023-01-27T12:47:55.414Z,51.80
2023-01-27T12:50:26.028Z,51.60
2023-01-27T12:53:01.781Z,51.10
2023-01-27T12:55:29.363Z,51.20
2023-01-27T12:57:59.536Z,51.10
2023-01-27T13:00:26.234Z,51.00
2023-01-27T13:02:55.979Z,51.30
2023-01-27T13:05:22.665Z,51.00
2023-01-27T13:07:52.445Z,51.40
2023-01-27T13:10:23.273Z,51.90
2023-01-27T13:12:51.685Z,51.20
2023-01-27T13:15:19.723Z,50.90
2023-01-27T13:17:49.339Z,51.00
2023-01-27T13:20:16.529Z,51.00
2023-01-27T13:22:45.612Z,51.00
2023-01-27T13:25:18.294Z,51.20
2023-01-27T13:27:45.310Z,51.30
2023-01-27T13:30:24.204Z,51.50
2023-01-27T13:32:52.503Z,51.20
2023-01-27T13:35:19.064Z,51.60
2023-01-27T13:38:08.931Z,51.60
2023-01-27T13:40:45.237Z,51.70
2023-01-27T13:43:20.799Z,51.10
2023-01-27T13:45:55.431Z,51.20
2023-01-27T13:48:28.323Z,50.80
2023-01-27T13:51:12.970Z,50.70
2023-01-27T13:53:42.064Z,50.70
2023-01-27T13:56:11.858Z,50.60
2023-01-27T13:58:59.875Z,50.40
2023-01-27T14:01:43.554Z,50.60
2023-01-27T14:04:23.829Z,50.60
2023-01-27T14:07:11.042Z,50.50
2023-01-27T14:09:39.821Z,50.50
2023-01-27T14:12:16.103Z,50.70
2023-01-27T14:14:58.076Z,50.60
2023-01-27T14:17:44.692Z,50.80
2023-01-27T14:20:13.035Z,50.50
2023-01-27T14:22:47.579Z,50.60
2023-01-27T14:25:18.115Z,50.30
2023-01-27T14:27:47.358Z,50.40
